Historyczne dane pomiarowe

Dodano dane terminowe – wersja testowa.

Dane z okresu 1951-2018

Wersja bazy: 1.27 [2018-11-28, lista zmian], aktualizacja planowana na 2018-12-07

Dane meteo z obszaru Polski uzyskane na podstawie danych udostępnionych przez Instytut Meteorologii i Gospodarki Wodnej – Państwowy Instytut Badawczy.

 

Wybierz Datę:    

       

TemperaturaWilgotnośćWiatrCiśnienieOpadyŚniegCzas trwania zjawisk
 Stacja t tx tn tng RH VA  wxwx mslp ppp RRR   cm mm wxwxwxwxwxwxwx
1978-11-08 3.0 9.0 -2.0- 86.8- 0.7 0.7---- 0.0------------
1978-11-09 1.6 6.8 -1.4- 87.5- 2.7 0.0---- 0.0------------
1978-11-10 1.3 9.6 -2.4- 85.8- 2.7 0.0---- 0.0------------
1978-11-11 -0.8 2.2 -4.0- 93.5- 0.0 0.7---- 0.0------------
1978-11-12 0.4 6.0 -3.4- 89.8- 2.7 0.3---- 0.0------------
1978-11-13 -0.6 7.0 -4.0- 87.8- 0.0 1.0---- 0.0------------
1978-11-14 0.7 9.0 -4.6- 86.5- 4.3 0.7---- 0.0------------
1978-11-15 7.4 12.8 -0.9- 75.0- 1.0 2.0---- 0.0------------
1978-11-16 8.4 13.4 4.4- 64.5- 2.7 3.3---- 0.0------------
1978-11-17 4.8 9.0 0.6- 80.0- 1.7 2.3---- 0.0------------
1978-11-18 6.1 9.0 3.1- 88.5- 4.0 2.7---- 0.0------------
1978-11-19 7.6 13.2 4.4- 60.5- 2.3 2.0---- 0.0------------
1978-11-20 7.3 12.6 4.4- 57.0- 2.7 1.0---- 0.0------------
1978-11-21 5.2 8.5 1.8- 81.8- 6.0 0.0---- 0.0------------
1978-11-22 4.2 8.2 -0.9- 79.5- 7.3 3.3---- 0.0------------
1978-11-23 7.5 12.5 6.3- 77.8- 8.0 4.3---- 0.0------------
1978-11-24 7.3 8.4 6.1- 76.3- 8.0 0.7---- 0.0------------
1978-11-25 5.0 10.5 1.6- 76.0- 0.0 2.0---- 0.0------------
1978-11-26 0.1 5.2 -3.4- 88.0- 4.3 1.0---- 0.0------------
1978-11-27 -1.0 1.5 -3.2- 92.8- 7.3 1.0---- 2.6------------
1978-11-28 -1.2 -0.4 -2.2- 95.3- 8.0 0.3---- 3.6-- 3---------
1978-11-29 -1.0 -0.5 -1.6- 93.8- 8.0 1.3---- 18.0-- 7---------
1978-11-30 -0.8 0.5 -3.6- 91.5- 8.0 0.3---- 12.2-- 17---------
1978-12-01 0.3 0.8 -0.8- 94.5- 8.0 0.0---- 1.7-- 20---------
1978-12-02 0.5 1.0 -0.2- 94.0- 8.0 0.3---- 0.1-- 18---------
1978-12-03 -2.3 0.2 -4.0- 85.0- 8.0 2.0---- 0.0-- 17---------
1978-12-04-12.0 -3.4-17.3- 79.8- 3.7 0.3---- 0.0-- 17---------
1978-12-05-15.2 -9.8-21.6- 74.3- 5.3 0.0---- 1.0-- 17---------
1978-12-06-11.5 -7.6-19.0- 83.0- 3.3 1.7---- 0.0-- 21---------
1978-12-07-18.1 -8.6-24.0- 77.0- 0.3 0.0---- 0.0-- 20---------
160.2 ms

 

Źródłem pochodzenia danych jest Instytut Meteorologii i Gospodarki Wodnej – Państwowy Instytut Badawczy. Dane Instytutu Meteorologii i Gospodarki Wodnej – Państwowego Instytutu Badawczego zostały przetworzone.

Dane źródłowe można odnaleźć na stronie https://dane.imgw.pl